Time;durP1;ratioP1;P1;durP2;ratioP2;P2;SDS_P1;SDS_P2;PMS_P1;PMS_P2;Temp;Humidity;BMP_temperature;BMP_pressure;BME280_temperature;BME280_humidity;BME280_pressure;Samples;Min_cycle;Max_cycle;Signal;HPM_P1;HPM_P2
2021/12/26 00:17:31;;;;;;;78.15;36.97;;;1.60;99.90;;;;;;6123795;23;20202;-89
2021/12/26 00:45:56;;;;;;;81.03;42.20;;;1.60;99.90;;;;;;6095156;23;20283;-86
2021/12/26 00:48:29;;;;;;;80.40;40.95;;;1.60;99.90;;;;;;6098079;23;20170;-86
2021/12/26 00:51:22;;;;;;;83.38;45.08;;;1.70;99.90;;;;;;6124034;23;20128;-86
2021/12/26 00:53:48;;;;;;;79.60;39.20;;;1.70;99.90;;;;;;6095355;23;20194;-86
2021/12/26 00:56:20;;;;;;;84.43;53.70;;;1.70;99.90;;;;;;6097324;23;20187;-86
2021/12/26 00:59:02;;;;;;;87.75;58.75;;;1.70;99.90;;;;;;6098028;23;20378;-86
2021/12/26 01:01:31;;;;;;;85.18;56.42;;;1.70;99.90;;;;;;6097959;23;20158;-87
2021/12/26 01:03:59;;;;;;;86.50;52.47;;;1.70;99.90;;;;;;6123036;23;20291;-87
2021/12/26 01:06:27;;;;;;;81.18;42.38;;;1.70;99.90;;;;;;6097275;23;20147;-86
2021/12/26 01:09:24;;;;;;;81.75;41.92;;;1.70;99.90;;;;;;6097707;23;20196;-86
2021/12/26 01:12:01;;;;;;;80.07;39.28;;;1.70;99.90;;;;;;6123474;23;20151;-86
2021/12/26 01:14:32;;;;;;;78.05;30.55;;;1.70;99.90;;;;;;6097290;23;20170;-86
2021/12/26 01:17:12;;;;;;;82.95;46.65;;;1.80;99.90;;;;;;6098351;23;20167;-86
2021/12/26 01:19:49;;;;;;;83.18;43.70;;;1.70;99.90;;;;;;6097691;23;20158;-86
2021/12/26 01:22:18;;;;;;;79.57;37.85;;;1.80;99.90;;;;;;6124371;23;20151;-86
2021/12/26 01:24:58;;;;;;;;;;;;;;;;;;;;;
2021/12/26 01:27:37;;;;;;;79.82;35.35;;;1.80;99.90;;;;;;6123467;23;20600;-86
2021/12/26 01:30:05;;;;;;;84.07;44.55;;;1.90;99.90;;;;;;6123980;23;20622;-86
2021/12/26 01:32:34;;;;;;;84.03;50.33;;;1.90;99.90;;;;;;6097412;23;20146;-86
2021/12/26 01:35:00;;;;;;;80.72;35.75;;;1.90;99.90;;;;;;6121900;23;20504;-86
2021/12/26 01:37:31;;;;;;;77.47;28.50;;;2.00;99.90;;;;;;6098539;23;20151;-86
2021/12/26 01:40:00;;;;;;;80.15;34.95;;;2.00;99.90;;;;;;6097572;23;20377;-86
2021/12/26 01:42:33;;;;;;;77.03;25.95;;;2.00;99.90;;;;;;6123599;23;20158;-86
2021/12/26 01:44:59;;;;;;;78.57;27.40;;;2.00;99.90;;;;;;6097019;23;20214;-86
2021/12/26 01:47:33;;;;;;;81.28;34.35;;;2.00;99.90;;;;;;6123027;23;20143;-86
2021/12/26 01:49:59;;;;;;;85.03;47.65;;;1.90;99.90;;;;;;6097638;23;20155;-86
2021/12/26 01:52:37;;;;;;;86.03;44.33;;;1.90;99.90;;;;;;6097114;23;20226;-86
2021/12/26 01:58:12;;;;;;;82.65;38.85;;;1.90;99.90;;;;;;6034415;23;20626;-86
2021/12/26 02:00:41;;;;;;;82.90;40.17;;;1.90;99.90;;;;;;6033558;23;20157;-86
2021/12/26 02:03:16;;;;;;;85.93;43.15;;;1.90;99.90;;;;;;6068342;23;20155;-86
2021/12/26 02:05:45;;;;;;;81.53;42.45;;;1.90;99.90;;;;;;6098152;23;20231;-86
2021/12/26 02:08:12;;;;;;;80.22;38.35;;;1.90;99.90;;;;;;6096887;23;20612;-86
2021/12/26 02:10:38;;;;;;;79.28;30.77;;;1.90;99.90;;;;;;6123317;23;20147;-86
2021/12/26 02:13:08;;;;;;;79.55;32.78;;;1.90;99.90;;;;;;6123001;23;20147;-85
2021/12/26 02:15:35;;;;;;;86.75;38.50;;;2.00;99.90;;;;;;6097701;23;20257;-86
2021/12/26 02:18:10;;;;;;;82.75;40.13;;;1.90;99.90;;;;;;6097131;23;20151;-86
2021/12/26 02:23:47;;;;;;;81.72;38.60;;;2.00;99.90;;;;;;6130628;23;20167;-86
2021/12/26 02:29:07;;;;;;;84.95;51.08;;;2.00;99.90;;;;;;6122924;23;20151;-86
2021/12/26 02:31:32;;;;;;;91.95;67.60;;;2.00;99.90;;;;;;6123444;23;20169;-86
2021/12/26 02:34:04;;;;;;;84.67;47.43;;;1.90;99.90;;;;;;6122939;23;20167;-86
2021/12/26 02:36:35;;;;;;;84.80;43.75;;;1.90;99.90;;;;;;6123696;23;20759;-86
2021/12/26 02:39:12;;;;;;;82.20;37.50;;;2.00;99.90;;;;;;6123376;23;20142;-86
2021/12/26 02:41:45;;;;;;;87.13;51.83;;;2.00;99.90;;;;;;6097954;23;20637;-86
2021/12/26 02:44:11;;;;;;;100.57;76.55;;;2.00;99.90;;;;;;6122944;23;20166;-86
2021/12/26 02:46:47;;;;;;;88.07;57.05;;;2.00;99.90;;;;;;6098996;23;20158;-86
2021/12/26 02:49:20;;;;;;;82.28;44.72;;;1.90;99.90;;;;;;6097138;23;20187;-86
2021/12/26 02:51:46;;;;;;;85.63;47.22;;;1.90;99.90;;;;;;6098078;23;20142;-86
2021/12/26 02:54:12;;;;;;;84.30;51.73;;;2.00;99.90;;;;;;6122662;23;20173;-86
2021/12/26 02:56:44;;;;;;;86.57;49.47;;;2.00;99.90;;;;;;6096980;23;20220;-86
2021/12/26 02:59:10;;;;;;;97.28;67.50;;;2.00;99.90;;;;;;6122608;23;20364;-86
2021/12/26 03:01:39;;;;;;;89.63;55.30;;;2.00;99.90;;;;;;6097261;23;20174;-86
2021/12/26 03:04:08;;;;;;;92.80;69.80;;;2.00;99.90;;;;;;6121609;23;20488;-86
2021/12/26 03:06:52;;;;;;;90.50;60.83;;;2.00;99.90;;;;;;6123069;23;20476;-86
2021/12/26 03:09:21;;;;;;;93.82;65.95;;;2.00;99.90;;;;;;6097048;23;20222;-86
2021/12/26 03:11:54;;;;;;;88.25;55.80;;;1.90;99.90;;;;;;6122510;23;20147;-86
2021/12/26 03:14:23;;;;;;;108.95;97.20;;;1.90;99.90;;;;;;6096947;23;20177;-86
2021/12/26 03:17:06;;;;;;;100.28;77.22;;;1.90;99.90;;;;;;6123003;23;20166;-86
2021/12/26 03:19:39;;;;;;;94.55;67.65;;;2.00;99.90;;;;;;6097637;23;20143;-86
2021/12/26 03:22:04;;;;;;;87.82;55.10;;;1.90;99.90;;;;;;6096758;23;20218;-86
2021/12/26 03:24:39;;;;;;;93.50;67.73;;;1.90;99.90;;;;;;6096359;23;20197;-86
2021/12/26 03:27:06;;;;;;;87.53;56.15;;;2.00;99.90;;;;;;6122556;23;20342;-86
2021/12/26 03:29:35;;;;;;;103.45;92.13;;;2.00;99.90;;;;;;6122485;23;20143;-86
2021/12/26 03:32:02;;;;;;;92.10;65.25;;;2.00;99.90;;;;;;6123065;23;20173;-86
2021/12/26 03:34:31;;;;;;;91.72;66.93;;;2.00;99.90;;;;;;6096303;23;20280;-86
2021/12/26 03:37:01;;;;;;;87.53;54.83;;;2.00;99.90;;;;;;6096873;23;20339;-86
2021/12/26 03:39:27;;;;;;;88.28;52.47;;;2.10;99.90;;;;;;6096634;23;20147;-86
2021/12/26 03:41:58;;;;;;;89.65;67.65;;;2.10;99.90;;;;;;6096552;23;20150;-86
2021/12/26 03:44:26;;;;;;;86.75;56.20;;;2.00;99.90;;;;;;6122814;23;21083;-86
2021/12/26 03:46:52;;;;;;;90.85;64.85;;;2.00;99.90;;;;;;6096987;23;20177;-86
2021/12/26 03:49:43;;;;;;;92.77;68.37;;;2.00;99.90;;;;;;6122726;23;20592;-86
2021/12/26 03:52:09;;;;;;;87.10;55.88;;;2.00;99.90;;;;;;6097805;23;20377;-86
2021/12/26 03:54:35;;;;;;;89.43;49.57;;;2.00;99.90;;;;;;6120672;23;20174;-86
2021/12/26 03:57:11;;;;;;;87.85;51.40;;;2.00;99.90;;;;;;6121898;23;20245;-86
2021/12/26 03:59:40;;;;;;;91.60;63.25;;;2.10;99.90;;;;;;6095661;23;20154;-86
2021/12/26 04:02:12;;;;;;;94.47;64.88;;;2.00;99.90;;;;;;6096450;23;20151;-86
2021/12/26 04:04:45;;;;;;;93.25;63.80;;;2.00;99.90;;;;;;6095912;23;20174;-87
2021/12/26 04:07:15;;;;;;;91.88;61.67;;;2.00;99.90;;;;;;6122085;23;20131;-86
2021/12/26 04:09:44;;;;;;;86.38;49.22;;;2.00;99.90;;;;;;6097542;23;20154;-86
2021/12/26 04:12:13;;;;;;;84.60;43.08;;;2.10;99.90;;;;;;6097641;23;20154;-86
2021/12/26 04:14:48;;;;;;;84.43;40.72;;;2.10;99.90;;;;;;6123344;23;20228;-86
2021/12/26 04:17:20;;;;;;;84.05;41.33;;;2.10;99.90;;;;;;6097088;23;20488;-86
2021/12/26 04:19:54;;;;;;;82.55;33.83;;;2.10;99.90;;;;;;6123741;23;20183;-86
2021/12/26 04:22:33;;;;;;;106.15;88.88;;;2.10;99.90;;;;;;6122392;23;20146;-86
2021/12/26 04:25:00;;;;;;;88.25;55.03;;;2.10;99.90;;;;;;6098065;23;20166;-86
2021/12/26 04:27:39;;;;;;;88.97;54.83;;;2.00;99.90;;;;;;6123776;23;20147;-86
2021/12/26 04:30:08;;;;;;;89.50;56.42;;;2.00;99.90;;;;;;6123184;23;20119;-86
2021/12/26 04:32:42;;;;;;;92.60;64.55;;;2.00;99.90;;;;;;6123121;23;20142;-86
2021/12/26 04:35:11;;;;;;;97.18;75.07;;;1.90;99.90;;;;;;6096974;23;20213;-86
2021/12/26 04:37:40;;;;;;;94.35;70.80;;;1.90;99.90;;;;;;6096444;23;20208;-86
2021/12/26 04:40:17;;;;;;;106.78;94.35;;;1.90;99.90;;;;;;6123182;23;20139;-86
2021/12/26 04:42:50;;;;;;;88.05;55.50;;;2.00;99.90;;;;;;6098461;23;20151;-86
2021/12/26 04:45:21;;;;;;;94.43;69.93;;;1.90;99.90;;;;;;6097076;23;20246;-86
2021/12/26 04:47:49;;;;;;;91.95;65.88;;;1.90;99.90;;;;;;6098092;23;20847;-86
2021/12/26 04:50:34;;;;;;;;;;;;;;;;;;;;;
2021/12/26 04:53:18;;;;;;;104.65;92.95;;;1.90;99.90;;;;;;6124104;23;20624;-86
2021/12/26 04:55:56;;;;;;;88.85;52.28;;;1.90;99.90;;;;;;6098243;23;20202;-86
2021/12/26 04:58:25;;;;;;;91.60;65.05;;;1.90;99.90;;;;;;6097026;23;20143;-86
2021/12/26 05:00:53;;;;;;;90.03;57.47;;;1.90;99.90;;;;;;6123269;23;20146;-86
2021/12/26 05:03:22;;;;;;;93.30;69.07;;;1.90;99.90;;;;;;6097862;23;20261;-86
2021/12/26 05:05:48;;;;;;;103.18;84.32;;;1.90;99.90;;;;;;6096193;23;20158;-86
2021/12/26 05:08:17;;;;;;;91.43;62.00;;;1.90;99.90;;;;;;6097228;23;20266;-86
2021/12/26 05:10:44;;;;;;;93.00;58.25;;;1.90;99.90;;;;;;6122966;23;20197;-86
2021/12/26 05:13:16;;;;;;;91.63;49.67;;;1.90;99.90;;;;;;6096926;23;20151;-86
2021/12/26 05:15:45;;;;;;;84.43;44.95;;;2.00;99.90;;;;;;6122736;23;20197;-86
2021/12/26 05:18:10;;;;;;;102.85;73.20;;;1.90;99.90;;;;;;6097009;23;20146;-86
2021/12/26 05:20:39;;;;;;;96.10;73.70;;;1.90;99.90;;;;;;6096189;23;20614;-86
2021/12/26 05:23:05;;;;;;;95.85;69.00;;;1.90;99.90;;;;;;6123760;23;20367;-86
2021/12/26 05:25:33;;;;;;;96.13;74.03;;;1.90;99.90;;;;;;6096920;23;20161;-86
2021/12/26 05:28:05;;;;;;;93.03;69.93;;;1.90;99.90;;;;;;6096804;23;20378;-86
2021/12/26 05:30:31;;;;;;;86.88;51.72;;;1.90;99.90;;;;;;6096840;23;20158;-86
2021/12/26 05:32:57;;;;;;;89.25;53.65;;;1.90;99.90;;;;;;6098857;23;20155;-86
2021/12/26 05:35:23;;;;;;;94.50;67.10;;;1.90;99.90;;;;;;6123138;23;20166;-86
2021/12/26 05:37:49;;;;;;;89.00;54.03;;;1.90;99.90;;;;;;6097281;23;20486;-86
2021/12/26 05:40:18;;;;;;;95.22;69.18;;;1.90;99.90;;;;;;6096953;23;20428;-86
2021/12/26 05:42:45;;;;;;;93.60;62.83;;;1.90;99.90;;;;;;6098135;23;20143;-86
2021/12/26 05:45:12;;;;;;;90.85;52.90;;;1.90;99.90;;;;;;6097284;23;20624;-86
2021/12/26 05:47:39;;;;;;;93.03;75.53;;;1.90;99.90;;;;;;6097134;23;20603;-86
2021/12/26 05:50:10;;;;;;;90.63;58.28;;;1.90;99.90;;;;;;6122978;23;20147;-86
2021/12/26 05:52:38;;;;;;;102.22;73.22;;;1.90;99.90;;;;;;6097713;23;20485;-87
2021/12/26 05:55:08;;;;;;;96.50;76.35;;;1.90;99.90;;;;;;6122756;23;20496;-86
2021/12/26 05:57:34;;;;;;;94.07;66.40;;;1.90;99.90;;;;;;6097033;23;20603;-86
2021/12/26 06:00:13;;;;;;;95.22;62.58;;;1.90;99.90;;;;;;6096885;23;20157;-86
2021/12/26 06:02:55;;;;;;;;;;;;;;;;;;;;;
2021/12/26 06:05:21;;;;;;;88.18;55.55;;;1.90;99.90;;;;;;6123010;23;20257;-86
2021/12/26 06:07:53;;;;;;;100.68;62.78;;;1.90;99.90;;;;;;6122533;23;20151;-86
2021/12/26 06:10:22;;;;;;;89.70;53.25;;;1.90;99.90;;;;;;6123191;23;20127;-86
2021/12/26 06:12:48;;;;;;;89.95;43.85;;;2.00;99.90;;;;;;6097194;23;20197;-86
2021/12/26 06:15:20;;;;;;;87.68;54.47;;;2.00;99.90;;;;;;6097573;23;20179;-86
2021/12/26 06:17:49;;;;;;;87.85;53.55;;;2.00;99.90;;;;;;6095776;23;20151;-86
2021/12/26 06:21:00;;;;;;;89.30;48.03;;;2.00;99.90;;;;;;6096627;23;20181;-86
2021/12/26 06:23:31;;;;;;;95.88;68.63;;;2.00;99.90;;;;;;6097174;23;20194;-86
2021/12/26 06:25:58;;;;;;;90.05;50.47;;;2.00;99.90;;;;;;6097546;23;20238;-86
2021/12/26 06:28:23;;;;;;;89.82;52.60;;;1.90;99.90;;;;;;6122920;23;20146;-86
2021/12/26 06:30:54;;;;;;;89.73;57.63;;;2.00;99.90;;;;;;6122742;23;20189;-86
2021/12/26 06:33:21;;;;;;;91.25;54.65;;;2.00;99.90;;;;;;6097200;23;20459;-86
2021/12/26 06:35:49;;;;;;;85.78;47.40;;;2.00;99.90;;;;;;6096771;23;20170;-86
2021/12/26 06:38:18;;;;;;;90.72;54.42;;;2.00;99.90;;;;;;6097057;23;20154;-86
2021/12/26 06:40:48;;;;;;;89.00;49.15;;;2.00;99.90;;;;;;6094103;23;20157;-86
2021/12/26 06:43:13;;;;;;;93.47;58.75;;;2.00;99.90;;;;;;6127292;23;20168;-85
2021/12/26 06:45:39;;;;;;;90.43;51.17;;;1.90;99.90;;;;;;6121198;23;20254;-84
2021/12/26 06:48:08;;;;;;;88.77;51.07;;;2.00;99.90;;;;;;6124458;23;20391;-85
2021/12/26 06:50:36;;;;;;;89.20;53.95;;;2.00;99.90;;;;;;6123806;23;20366;-85
2021/12/26 06:53:03;;;;;;;89.50;46.40;;;2.00;99.90;;;;;;6098096;23;20480;-86
2021/12/26 06:55:28;;;;;;;90.68;49.25;;;2.00;99.90;;;;;;6123760;23;20240;-86
2021/12/26 06:57:54;;;;;;;88.57;35.60;;;2.00;99.90;;;;;;6123594;23;20173;-84
2021/12/26 07:00:20;;;;;;;86.50;41.50;;;2.10;99.90;;;;;;6124182;23;20393;-84
2021/12/26 07:02:46;;;;;;;90.30;55.30;;;2.10;99.90;;;;;;6124215;23;20375;-85
2021/12/26 07:05:12;;;;;;;94.10;56.63;;;2.00;99.90;;;;;;6098465;23;20740;-85
2021/12/26 07:07:39;;;;;;;102.13;71.95;;;2.10;99.90;;;;;;6098093;23;20414;-85
2021/12/26 07:10:06;;;;;;;88.22;47.15;;;2.00;99.90;;;;;;6102640;23;20226;-86
2021/12/26 07:12:35;;;;;;;95.38;64.00;;;2.10;99.90;;;;;;6102369;23;20139;-87
2021/12/26 07:15:02;;;;;;;95.20;61.90;;;2.00;99.90;;;;;;6127582;23;20198;-86
2021/12/26 07:17:28;;;;;;;91.45;52.75;;;2.00;99.90;;;;;;6102306;23;20147;-87
2021/12/26 07:19:54;;;;;;;100.90;79.30;;;2.10;99.90;;;;;;6128057;23;20649;-86
2021/12/26 07:22:20;;;;;;;95.20;66.33;;;2.00;99.90;;;;;;6102326;23;20153;-87
2021/12/26 07:24:47;;;;;;;115.60;103.40;;;2.00;99.90;;;;;;6101062;23;20170;-86
2021/12/26 07:27:22;;;;;;;90.70;56.45;;;2.00;99.90;;;;;;6100448;23;20154;-84
2021/12/26 07:29:48;;;;;;;89.45;49.35;;;2.00;99.90;;;;;;6097982;23;20184;-85
2021/12/26 07:32:23;;;;;;;89.75;55.00;;;2.00;99.90;;;;;;6123699;23;20149;-84
2021/12/26 07:35:11;;;;;;;85.20;41.65;;;2.10;99.90;;;;;;6098166;23;20170;-85
2021/12/26 07:37:39;;;;;;;86.65;42.67;;;2.10;99.90;;;;;;6098442;23;20665;-85
2021/12/26 07:40:41;;;;;;;87.63;47.72;;;2.10;99.90;;;;;;6097998;23;20157;-84
2021/12/26 07:43:40;;;;;;;89.95;49.60;;;2.10;99.90;;;;;;6098252;23;20204;-84
2021/12/26 07:46:54;;;;;;;86.90;47.90;;;2.10;99.90;;;;;;6097529;23;20176;-84
2021/12/26 07:49:23;;;;;;;83.85;37.95;;;2.00;99.90;;;;;;6114852;23;20515;-85
2021/12/26 07:52:32;;;;;;;88.00;42.85;;;2.00;99.90;;;;;;6098167;23;20142;-84
2021/12/26 07:54:58;;;;;;;90.72;43.92;;;2.00;99.90;;;;;;6123461;23;20639;-85
2021/12/26 07:57:24;;;;;;;86.33;48.63;;;2.00;99.90;;;;;;6097504;23;20146;-85
2021/12/26 07:59:50;;;;;;;91.77;50.13;;;2.00;99.90;;;;;;6098215;23;20409;-86
2021/12/26 08:02:22;;;;;;;93.23;57.80;;;2.00;99.90;;;;;;6123184;23;20362;-86
2021/12/26 08:04:54;;;;;;;90.97;49.28;;;2.00;99.90;;;;;;6097979;23;20402;-86
2021/12/26 08:07:26;;;;;;;98.22;63.50;;;2.00;99.90;;;;;;6124387;23;20127;-85
2021/12/26 08:09:52;;;;;;;91.88;48.53;;;2.00;99.90;;;;;;6097429;23;20139;-85
2021/12/26 08:12:26;;;;;;;92.90;62.77;;;2.00;99.90;;;;;;6123882;23;20143;-85
2021/12/26 08:15:01;;;;;;;104.45;80.97;;;2.10;99.90;;;;;;6097616;23;20398;-85
2021/12/26 08:17:59;;;;;;;92.18;55.33;;;2.00;99.90;;;;;;6099108;23;20460;-86
2021/12/26 08:20:59;;;;;;;86.75;51.53;;;2.00;99.90;;;;;;6097907;23;20154;-87
2021/12/26 08:24:01;;;;;;;86.50;45.10;;;2.10;99.90;;;;;;6099895;23;20482;-85
2021/12/26 08:27:00;;;;;;;85.18;38.40;;;2.10;99.90;;;;;;6098779;23;20142;-84
2021/12/26 08:29:27;;;;;;;85.43;37.78;;;2.20;99.90;;;;;;6011019;23;20149;-85
2021/12/26 08:35:37;;;;;;;86.03;43.95;;;2.20;99.90;;;;;;6111257;23;20198;-86
2021/12/26 08:38:36;;;;;;;93.10;50.10;;;2.20;99.90;;;;;;6122970;23;20209;-84
2021/12/26 08:41:18;;;;;;;89.75;36.40;;;2.20;99.90;;;;;;6123482;23;20174;-84
2021/12/26 08:43:53;;;;;;;89.00;48.58;;;2.40;99.90;;;;;;6123728;23;20169;-85
2021/12/26 08:46:36;;;;;;;86.75;42.70;;;2.30;99.90;;;;;;6123935;23;20131;-85
2021/12/26 08:49:27;;;;;;;89.38;47.75;;;2.40;99.90;;;;;;6102844;23;20264;-87
2021/12/26 08:52:02;;;;;;;89.40;52.92;;;2.40;99.90;;;;;;6100088;23;20155;-87
2021/12/26 08:55:05;;;;;;;90.85;44.85;;;2.40;99.90;;;;;;6127162;23;20188;-86
2021/12/26 08:57:35;;;;;;;83.55;35.10;;;2.40;99.90;;;;;;6127511;23;20150;-86
2021/12/26 09:00:55;;;;;;;90.57;46.08;;;2.50;99.90;;;;;;6103479;23;20147;-86
2021/12/26 09:11:22;;;;;;;;;;;;;;;;;;;;;
2021/12/26 09:14:39;;;;;;;91.30;41.17;;;2.40;99.90;;;;;;5915528;24;20254;-86
2021/12/26 09:24:27;;;;;;;97.93;70.15;;;2.30;99.90;;;;;;5972495;24;20185;-86
2021/12/26 09:27:50;;;;;;;105.55;75.72;;;2.20;99.90;;;;;;5906105;24;20510;-87
2021/12/26 09:31:20;;;;;;;87.88;45.92;;;2.20;99.90;;;;;;5979767;23;20162;-85
2021/12/26 09:34:11;;;;;;;105.07;79.68;;;2.20;99.90;;;;;;5905391;23;20625;-86
2021/12/26 09:47:10;;;;;;;94.20;59.83;;;2.40;99.90;;;;;;6186676;23;20245;-86
2021/12/26 09:53:38;;;;;;;;;;;;;;;;;;;;;
2021/12/26 09:56:34;;;;;;;103.13;84.45;;;2.50;99.90;;;;;;6187035;23;20247;-85
2021/12/26 09:59:14;;;;;;;104.35;82.55;;;2.60;99.90;;;;;;6099510;23;20221;-85
2021/12/26 10:01:46;;;;;;;98.25;70.13;;;2.60;99.90;;;;;;6101300;23;20155;-85
2021/12/26 10:04:20;;;;;;;93.88;64.57;;;2.70;99.90;;;;;;6100276;23;20173;-85
2021/12/26 10:07:09;;;;;;;119.95;107.78;;;2.70;99.90;;;;;;6100022;23;20211;-86
2021/12/26 10:09:54;;;;;;;94.57;54.47;;;2.80;99.90;;;;;;6126868;23;20200;-86
2021/12/26 10:12:26;;;;;;;93.28;60.95;;;2.80;99.90;;;;;;6126542;23;20143;-85
2021/12/26 10:15:07;;;;;;;97.55;67.78;;;2.90;99.90;;;;;;6126299;23;20269;-85
2021/12/26 10:17:36;;;;;;;94.32;63.05;;;2.90;99.90;;;;;;6126661;23;20479;-86
2021/12/26 10:20:09;;;;;;;90.40;50.58;;;2.90;99.90;;;;;;6100320;23;20143;-85
2021/12/26 10:22:35;;;;;;;104.75;78.32;;;3.00;99.90;;;;;;6126771;23;20143;-86
2021/12/26 10:25:32;;;;;;;96.15;60.45;;;3.00;99.90;;;;;;6100887;23;20166;-86
2021/12/26 10:28:13;;;;;;;87.72;53.95;;;3.00;99.90;;;;;;6128982;23;20143;-86
2021/12/26 10:30:46;;;;;;;96.10;61.72;;;3.00;99.90;;;;;;6102258;23;20149;-86
2021/12/26 10:33:49;;;;;;;99.57;64.68;;;2.90;99.90;;;;;;6102447;23;20218;-86
2021/12/26 10:36:45;;;;;;;97.50;72.07;;;2.80;99.90;;;;;;6188383;23;20200;-86
2021/12/26 10:39:43;;;;;;;93.10;50.92;;;2.80;99.90;;;;;;6128440;23;20187;-86
2021/12/26 10:42:22;;;;;;;98.97;75.53;;;2.80;99.90;;;;;;6098449;23;20175;-87
2021/12/26 10:44:54;;;;;;;99.85;70.13;;;2.80;99.90;;;;;;6102658;23;20192;-87
2021/12/26 10:47:46;;;;;;;100.75;68.43;;;2.70;99.90;;;;;;6103156;23;20150;-87
2021/12/26 10:50:47;;;;;;;98.93;63.10;;;2.70;99.90;;;;;;6103775;23;20150;-86
2021/12/26 10:53:14;;;;;;;106.00;78.97;;;2.70;99.90;;;;;;6129934;23;20249;-87
2021/12/26 10:56:23;;;;;;;133.75;120.38;;;2.80;99.90;;;;;;6129256;23;20166;-87
2021/12/26 10:58:49;;;;;;;106.05;92.18;;;2.80;99.90;;;;;;6103021;23;20150;-86
2021/12/26 11:01:20;;;;;;;113.50;89.37;;;2.80;99.90;;;;;;6126964;23;20564;-85
2021/12/26 11:04:19;;;;;;;98.82;73.40;;;2.90;99.90;;;;;;6100978;23;20166;-85
2021/12/26 11:07:11;;;;;;;101.47;67.80;;;2.90;99.90;;;;;;6125784;23;20499;-87
2021/12/26 11:09:37;;;;;;;137.85;124.65;;;3.00;99.90;;;;;;6100475;23;20512;-85
2021/12/26 11:12:06;;;;;;;109.30;93.55;;;3.10;99.90;;;;;;6126204;23;20224;-87
2021/12/26 11:14:55;;;;;;;198.95;182.73;;;3.00;99.90;;;;;;6126001;23;20163;-87
2021/12/26 11:17:32;;;;;;;130.88;117.53;;;3.00;99.90;;;;;;6125919;23;20530;-85
2021/12/26 11:19:59;;;;;;;100.65;83.85;;;3.00;99.90;;;;;;6126555;23;20148;-86
2021/12/26 11:22:26;;;;;;;108.03;86.68;;;3.00;99.90;;;;;;6127014;23;20473;-86
2021/12/26 11:25:18;;;;;;;100.57;84.65;;;3.10;99.90;;;;;;6126215;23;20187;-86
2021/12/26 11:28:26;;;;;;;;;;;;;;;;;;;;;
2021/12/26 11:31:17;;;;;;;97.53;69.95;;;3.30;99.90;;;;;;6126160;23;20177;-85
2021/12/26 11:33:43;;;;;;;99.45;69.47;;;3.30;99.90;;;;;;6100124;23;20612;-86
2021/12/26 11:36:12;;;;;;;96.00;68.20;;;3.50;99.90;;;;;;6126362;23;20204;-85
2021/12/26 11:42:09;;;;;;;108.57;86.18;;;3.50;99.90;;;;;;6128882;23;20143;-87
2021/12/26 11:45:08;;;;;;;120.22;105.60;;;3.60;99.90;;;;;;6126023;23;20162;-85
2021/12/26 11:48:40;;;;;;;94.25;56.67;;;3.70;99.90;;;;;;6100968;23;20193;-86
2021/12/26 11:51:30;;;;;;;103.03;74.63;;;3.70;99.90;;;;;;6013170;23;20547;-85
2021/12/26 11:54:33;;;;;;;90.85;51.65;;;3.80;99.90;;;;;;6036720;23;20180;-85
2021/12/26 11:57:08;;;;;;;93.88;50.42;;;3.70;99.90;;;;;;6102295;23;20249;-87
2021/12/26 12:00:13;;;;;;;102.53;73.85;;;3.70;99.90;;;;;;6100294;23;20156;-87
2021/12/26 12:02:45;;;;;;;88.10;38.50;;;3.70;99.90;;;;;;6099716;23;20177;-85
2021/12/26 12:05:24;;;;;;;104.72;72.10;;;3.80;99.90;;;;;;6129904;23;20166;-87
2021/12/26 12:08:01;;;;;;;86.72;37.58;;;3.70;99.90;;;;;;6129067;23;20514;-86
2021/12/26 12:10:57;;;;;;;88.30;37.33;;;3.70;99.90;;;;;;6103421;23;20147;-87
2021/12/26 12:13:38;;;;;;;88.65;44.17;;;3.70;99.90;;;;;;6103227;23;20619;-87
2021/12/26 12:16:29;;;;;;;85.15;36.88;;;3.60;99.90;;;;;;6103301;23;20174;-87
2021/12/26 12:19:04;;;;;;;87.55;37.97;;;3.60;99.90;;;;;;6129496;23;20627;-87
2021/12/26 12:21:44;;;;;;;86.75;38.45;;;3.60;99.90;;;;;;6103591;23;20639;-87
2021/12/26 12:24:17;;;;;;;86.85;43.75;;;3.70;99.90;;;;;;6103241;23;20165;-87
2021/12/26 12:27:08;;;;;;;92.22;51.05;;;3.60;99.90;;;;;;6103449;23;20206;-86
2021/12/26 12:29:45;;;;;;;87.82;45.47;;;3.50;99.90;;;;;;6128326;23;20134;-87
2021/12/26 12:32:26;;;;;;;84.18;35.33;;;3.50;99.90;;;;;;6130136;23;20127;-87
2021/12/26 12:35:29;;;;;;;86.18;41.53;;;3.50;99.90;;;;;;6129748;23;20559;-87
2021/12/26 12:38:27;;;;;;;87.03;44.17;;;3.50;99.90;;;;;;6073617;23;20166;-87
2021/12/26 12:40:55;;;;;;;92.40;55.67;;;3.50;99.90;;;;;;6103807;23;20175;-87
2021/12/26 12:43:27;;;;;;;87.32;38.58;;;3.50;99.90;;;;;;6129498;23;20159;-87
2021/12/26 12:45:57;;;;;;;86.72;42.85;;;3.50;99.90;;;;;;6092702;22;20293;-85
2021/12/26 12:48:33;;;;;;;85.50;38.47;;;3.50;99.90;;;;;;6102161;23;20158;-86
2021/12/26 12:51:04;;;;;;;85.38;36.63;;;3.50;99.90;;;;;;6101741;23;20144;-86
2021/12/26 12:54:08;;;;;;;82.97;32.10;;;3.60;99.90;;;;;;6102449;23;20171;-86
2021/12/26 12:56:44;;;;;;;84.05;33.85;;;3.60;99.90;;;;;;6127333;23;20167;-85
2021/12/26 12:59:16;;;;;;;85.95;36.58;;;3.60;99.90;;;;;;6102272;23;20157;-85
2021/12/26 13:01:58;;;;;;;87.70;44.33;;;3.70;99.90;;;;;;6127913;23;20531;-86
2021/12/26 13:04:30;;;;;;;83.45;35.13;;;3.70;99.90;;;;;;6128253;23;20612;-85
2021/12/26 13:07:04;;;;;;;85.40;38.22;;;3.70;99.90;;;;;;6130865;23;20143;-86
2021/12/26 13:09:35;;;;;;;85.25;35.72;;;3.70;99.90;;;;;;6107557;23;20145;-86
2021/12/26 13:12:04;;;;;;;91.03;41.85;;;3.70;99.90;;;;;;6132592;23;20218;-86
2021/12/26 13:14:37;;;;;;;82.93;31.23;;;3.80;99.90;;;;;;6107500;23;20229;-86
2021/12/26 13:17:05;;;;;;;88.32;38.28;;;3.80;99.90;;;;;;6134144;23;20182;-86
2021/12/26 13:19:34;;;;;;;92.90;40.15;;;3.90;99.90;;;;;;6133477;23;20138;-87
2021/12/26 13:22:02;;;;;;;88.50;44.33;;;3.90;99.90;;;;;;6106410;23;20162;-86
2021/12/26 13:24:39;;;;;;;86.80;35.08;;;3.90;99.90;;;;;;6106025;23;20201;-86
2021/12/26 13:27:09;;;;;;;86.90;35.83;;;4.00;99.90;;;;;;6107498;23;20499;-85
2021/12/26 13:29:47;;;;;;;89.47;38.97;;;3.90;99.90;;;;;;6132588;23;20143;-86
2021/12/26 13:32:14;;;;;;;87.90;30.13;;;3.90;99.90;;;;;;6107162;23;20198;-86
2021/12/26 13:34:40;;;;;;;84.57;35.97;;;4.00;99.90;;;;;;6107359;23;20171;-86
2021/12/26 13:37:06;;;;;;;84.97;33.77;;;3.90;99.90;;;;;;6107308;23;20174;-86
2021/12/26 13:39:32;;;;;;;84.80;36.55;;;4.10;99.90;;;;;;6133695;23;20577;-86
2021/12/26 13:41:58;;;;;;;85.23;38.27;;;4.00;99.90;;;;;;6132370;23;20149;-87
2021/12/26 13:44:23;;;;;;;85.77;36.33;;;4.00;99.90;;;;;;6132558;23;20159;-86
2021/12/26 13:46:58;;;;;;;89.17;44.87;;;4.00;99.90;;;;;;6132633;23;20240;-86
2021/12/26 13:49:24;;;;;;;85.38;36.30;;;4.00;99.90;;;;;;6106735;23;20412;-86
2021/12/26 13:51:55;;;;;;;85.83;39.57;;;4.00;99.90;;;;;;6132701;23;20142;-86
2021/12/26 13:54:29;;;;;;;89.65;43.83;;;4.00;99.90;;;;;;6105793;23;20170;-86
2021/12/26 13:56:58;;;;;;;87.43;34.95;;;4.00;99.90;;;;;;6106271;23;20173;-87
2021/12/26 13:59:37;;;;;;;85.70;40.28;;;4.00;99.90;;;;;;6132140;23;20169;-86
2021/12/26 14:02:09;;;;;;;82.80;35.42;;;4.00;99.90;;;;;;6131955;23;20149;-86
2021/12/26 14:04:42;;;;;;;83.88;33.38;;;4.00;99.90;;;;;;6131476;23;20163;-86
2021/12/26 14:07:22;;;;;;;86.03;40.45;;;4.00;99.90;;;;;;6106856;23;20241;-86
2021/12/26 14:09:51;;;;;;;86.68;37.22;;;4.00;99.90;;;;;;6102130;23;20150;-85
2021/12/26 14:12:29;;;;;;;87.78;39.78;;;4.00;99.90;;;;;;6102299;23;20212;-86
2021/12/26 14:14:57;;;;;;;88.53;40.75;;;4.00;99.90;;;;;;6126083;23;20616;-85
2021/12/26 14:17:23;;;;;;;85.05;39.33;;;4.00;99.90;;;;;;6125167;23;20159;-85
2021/12/26 14:19:58;;;;;;;88.63;39.97;;;3.90;99.90;;;;;;6124600;23;20139;-86
2021/12/26 14:22:30;;;;;;;83.72;36.40;;;4.00;99.90;;;;;;6099169;23;20369;-85
2021/12/26 14:24:56;;;;;;;85.53;43.38;;;4.00;99.90;;;;;;6099302;23;20166;-85
2021/12/26 14:27:21;;;;;;;87.97;40.35;;;3.90;99.90;;;;;;6127315;23;20197;-85
2021/12/26 14:30:01;;;;;;;84.37;39.07;;;4.00;99.90;;;;;;6129405;23;20155;-86
2021/12/26 14:32:27;;;;;;;87.97;45.63;;;3.90;99.90;;;;;;6128221;23;20370;-85
2021/12/26 14:34:53;;;;;;;84.67;40.77;;;3.90;99.90;;;;;;6102862;23;20175;-86
2021/12/26 14:37:24;;;;;;;86.13;41.93;;;3.90;99.90;;;;;;6129199;23;20454;-86
2021/12/26 14:39:54;;;;;;;83.82;34.60;;;3.90;99.90;;;;;;6129235;23;20139;-86
2021/12/26 14:42:24;;;;;;;84.22;37.22;;;3.90;99.90;;;;;;6104511;23;20138;-85
2021/12/26 14:45:02;;;;;;;84.38;38.00;;;3.90;99.90;;;;;;6101826;23;20174;-85
2021/12/26 14:47:37;;;;;;;87.50;43.30;;;3.90;99.90;;;;;;6102609;23;20603;-86
2021/12/26 14:50:12;;;;;;;83.35;37.45;;;3.90;99.90;;;;;;6127580;23;20210;-86
2021/12/26 14:52:45;;;;;;;85.40;37.97;;;3.90;99.90;;;;;;6101650;23;20142;-85